createdAt,value
2022-08-09T00:01:42.821Z,1.00
2022-08-09T00:04:35.343Z,0.80
2022-08-09T00:07:07.625Z,0.82
2022-08-09T00:09:39.630Z,0.90
2022-08-09T00:12:22.368Z,1.10
2022-08-09T00:14:56.605Z,0.75
2022-08-09T00:18:07.531Z,1.10
2022-08-09T00:20:13.766Z,1.10
2022-08-09T00:22:43.126Z,0.80
2022-08-09T00:25:23.191Z,11.82
2022-08-09T00:28:01.356Z,5.95
2022-08-09T00:30:33.861Z,18.50
2022-08-09T00:33:01.946Z,96.50
2022-08-09T00:35:43.383Z,105.78
2022-08-09T00:38:13.830Z,57.53
2022-08-09T00:40:53.308Z,26.17
2022-08-09T00:44:11.607Z,9.00
2022-08-09T00:46:11.003Z,2.72
2022-08-09T00:48:49.392Z,1.52
2022-08-09T00:51:19.385Z,1.30
2022-08-09T00:53:51.849Z,3.20
2022-08-09T00:56:22.270Z,1.83
2022-08-09T00:58:51.613Z,1.25
2022-08-09T01:01:32.322Z,1.00
2022-08-09T01:04:20.929Z,1.10
2022-08-09T01:07:37.780Z,0.80
2022-08-09T01:11:03.857Z,1.08
2022-08-09T01:13:58.817Z,1.17
2022-08-09T01:16:37.011Z,1.20
2022-08-09T01:20:02.998Z,1.10
2022-08-09T01:22:48.214Z,0.98
2022-08-09T01:25:37.481Z,1.30
2022-08-09T01:28:11.472Z,1.90
2022-08-09T01:30:52.339Z,1.40
2022-08-09T01:33:35.197Z,1.40
2022-08-09T01:36:16.768Z,3.03
2022-08-09T01:38:49.191Z,3.78
2022-08-09T01:41:28.277Z,1.88
2022-08-09T01:44:01.946Z,1.40
2022-08-09T01:46:35.753Z,1.25
2022-08-09T01:49:48.757Z,1.25
2022-08-09T01:52:24.239Z,1.20
2022-08-09T01:54:57.914Z,1.00
2022-08-09T01:57:39.862Z,1.02
2022-08-09T02:00:34.244Z,1.02
2022-08-09T02:03:05.560Z,1.03
2022-08-09T02:05:53.631Z,1.00
2022-08-09T02:08:39.062Z,1.05
2022-08-09T02:11:20.260Z,1.10
2022-08-09T02:13:55.397Z,1.00
2022-08-09T02:17:00.157Z,1.13
2022-08-09T02:19:38.549Z,1.27
2022-08-09T02:22:45.678Z,1.08
2022-08-09T02:25:31.269Z,1.30
2022-08-09T02:28:19.852Z,1.05
2022-08-09T02:31:06.381Z,1.30
2022-08-09T02:34:07.393Z,1.27
2022-08-09T02:36:39.584Z,1.10
2022-08-09T02:39:19.907Z,0.98
2022-08-09T02:42:08.881Z,1.10
2022-08-09T02:44:42.895Z,1.23
2022-08-09T02:47:16.664Z,1.10
2022-08-09T02:50:05.940Z,1.10
2022-08-09T02:52:49.684Z,1.08
2022-08-09T02:55:39.398Z,1.20
2022-08-09T02:58:35.680Z,1.02
2022-08-09T03:01:10.851Z,1.40
2022-08-09T03:04:16.627Z,1.50
2022-08-09T03:06:31.043Z,1.20
2022-08-09T03:09:03.184Z,1.27
2022-08-09T03:12:05.311Z,1.30
2022-08-09T03:14:21.807Z,1.30
2022-08-09T03:16:58.294Z,1.20
2022-08-09T03:19:58.276Z,1.30
2022-08-09T03:22:29.940Z,1.40
2022-08-09T03:25:06.669Z,1.50
2022-08-09T03:27:52.068Z,1.38
2022-08-09T03:30:29.630Z,1.40
2022-08-09T03:33:16.806Z,1.38
2022-08-09T03:36:15.858Z,1.30
2022-08-09T03:38:44.744Z,1.60
2022-08-09T03:41:16.681Z,1.45
2022-08-09T03:44:03.169Z,1.23
2022-08-09T03:46:37.015Z,1.30
2022-08-09T03:49:07.937Z,1.30
2022-08-09T03:51:58.588Z,1.27
2022-08-09T03:54:38.519Z,1.40
2022-08-09T03:57:12.158Z,1.42
2022-08-09T03:59:53.733Z,1.25
2022-08-09T04:02:28.361Z,1.40
2022-08-09T04:05:06.512Z,1.80
2022-08-09T04:07:52.906Z,1.40
2022-08-09T04:10:29.658Z,1.63
2022-08-09T04:13:04.349Z,1.50
2022-08-09T04:16:17.097Z,1.45
2022-08-09T04:18:22.343Z,1.48
2022-08-09T04:20:54.021Z,1.38
2022-08-09T04:23:26.328Z,1.50
2022-08-09T04:25:56.532Z,1.42
2022-08-09T04:28:34.460Z,1.50
2022-08-09T04:31:09.751Z,1.73
2022-08-09T04:33:51.870Z,1.50
2022-08-09T04:36:24.456Z,1.40
2022-08-09T04:38:54.721Z,1.38
2022-08-09T04:41:32.318Z,1.35
2022-08-09T04:44:11.041Z,1.40
2022-08-09T04:46:59.517Z,1.65
2022-08-09T04:49:52.836Z,1.17
2022-08-09T04:52:26.538Z,1.35
2022-08-09T04:55:04.324Z,1.42
2022-08-09T04:57:53.911Z,1.48
2022-08-09T05:00:31.669Z,1.40
2022-08-09T05:03:12.770Z,1.40
2022-08-09T05:05:52.128Z,1.25
2022-08-09T05:08:35.088Z,1.58
2022-08-09T05:11:06.926Z,1.58
2022-08-09T05:13:38.896Z,1.50
2022-08-09T05:16:08.712Z,1.52
2022-08-09T05:18:57.946Z,1.25
2022-08-09T05:21:30.504Z,1.50
2022-08-09T05:24:16.058Z,1.60
2022-08-09T05:26:47.655Z,1.73
2022-08-09T05:29:35.614Z,1.60
2022-08-09T05:32:05.904Z,1.50
2022-08-09T05:34:36.896Z,1.65
2022-08-09T05:37:11.716Z,1.50
2022-08-09T05:39:42.790Z,1.50
2022-08-09T05:42:27.886Z,1.55
2022-08-09T05:44:57.045Z,1.67
2022-08-09T05:47:30.340Z,1.83
2022-08-09T05:50:25.630Z,1.65
2022-08-09T05:52:53.730Z,1.60
2022-08-09T05:55:24.208Z,1.65
2022-08-09T05:57:56.516Z,1.60
2022-08-09T06:00:29.817Z,1.50
2022-08-09T06:03:01.860Z,1.50
2022-08-09T06:05:57.168Z,1.17
2022-08-09T06:08:24.512Z,1.52
2022-08-09T06:10:58.321Z,1.00
2022-08-09T06:13:28.501Z,1.30
2022-08-09T06:16:05.395Z,1.60
2022-08-09T06:18:36.627Z,1.38
2022-08-09T06:21:06.747Z,1.20
2022-08-09T06:23:57.963Z,1.15
2022-08-09T06:26:28.664Z,1.05
2022-08-09T06:29:00.166Z,1.25
2022-08-09T06:31:39.975Z,1.10
2022-08-09T06:34:26.249Z,1.70
2022-08-09T06:37:00.037Z,1.23
2022-08-09T06:39:49.281Z,1.20
2022-08-09T06:42:24.505Z,1.50
2022-08-09T06:44:54.701Z,1.30
2022-08-09T06:47:24.040Z,1.42
2022-08-09T06:50:13.862Z,1.20
2022-08-09T06:52:48.795Z,1.40
2022-08-09T06:55:22.315Z,1.23
2022-08-09T06:58:03.451Z,1.38
2022-08-09T07:00:50.845Z,1.30
2022-08-09T07:03:27.873Z,1.10
2022-08-09T07:06:04.478Z,1.10
2022-08-09T07:08:39.641Z,1.10
2022-08-09T07:11:08.579Z,1.08
2022-08-09T07:13:44.957Z,1.30
2022-08-09T07:16:42.790Z,0.98
2022-08-09T07:19:22.968Z,1.10
2022-08-09T07:21:57.653Z,1.10
2022-08-09T07:24:32.446Z,1.10
2022-08-09T07:27:26.927Z,1.20
2022-08-09T07:30:01.476Z,1.00
2022-08-09T07:32:32.334Z,1.27
2022-08-09T07:35:08.225Z,1.00
2022-08-09T07:37:45.669Z,1.17
2022-08-09T07:40:20.234Z,1.20
2022-08-09T07:42:57.768Z,1.30
2022-08-09T07:45:38.073Z,1.13
2022-08-09T07:48:25.544Z,1.20
2022-08-09T07:51:02.989Z,1.20
2022-08-09T07:54:06.552Z,1.13
2022-08-09T07:56:27.956Z,1.35
2022-08-09T07:58:59.807Z,1.27
2022-08-09T08:01:33.844Z,1.17
2022-08-09T08:04:04.991Z,1.15
2022-08-09T08:06:55.810Z,1.05
2022-08-09T08:09:38.703Z,1.00
2022-08-09T08:12:27.569Z,1.20
2022-08-09T08:15:03.135Z,1.10
2022-08-09T08:17:51.918Z,1.10
2022-08-09T08:20:30.373Z,1.20
2022-08-09T08:23:16.770Z,1.10
2022-08-09T08:26:06.518Z,1.30
2022-08-09T08:28:39.673Z,0.98
2022-08-09T08:31:15.022Z,1.17
2022-08-09T08:33:52.981Z,1.20
2022-08-09T08:36:28.761Z,1.90
2022-08-09T08:39:00.495Z,1.50
2022-08-09T08:41:50.506Z,1.30
2022-08-09T08:44:22.974Z,1.25
2022-08-09T08:47:12.060Z,1.20
2022-08-09T08:49:48.118Z,1.17
2022-08-09T08:52:58.317Z,1.10
2022-08-09T08:55:23.246Z,1.15
2022-08-09T08:57:58.177Z,1.10
2022-08-09T09:00:34.647Z,0.95
2022-08-09T09:03:11.294Z,1.10
2022-08-09T09:06:03.252Z,1.00
2022-08-09T09:08:40.987Z,1.08
2022-08-09T09:11:13.920Z,1.10
2022-08-09T09:13:57.233Z,0.95
2022-08-09T09:16:35.963Z,1.10
2022-08-09T09:22:26.653Z,1.00
2022-08-09T09:26:01.353Z,0.93
2022-08-09T09:28:03.826Z,0.90
2022-08-09T09:30:40.722Z,1.00
2022-08-09T09:33:13.814Z,1.00
2022-08-09T09:36:04.130Z,1.10
2022-08-09T09:38:58.245Z,1.10
2022-08-09T09:41:33.017Z,1.02
2022-08-09T09:44:12.326Z,0.90
2022-08-09T09:46:51.473Z,1.10
2022-08-09T09:49:31.935Z,1.08
2022-08-09T09:52:33.726Z,1.00
2022-08-09T09:55:24.047Z,0.80
2022-08-09T09:58:15.874Z,0.93
2022-08-09T10:01:00.191Z,1.10
2022-08-09T10:03:57.992Z,1.02
2022-08-09T10:06:42.747Z,0.95
2022-08-09T10:09:22.682Z,1.20
2022-08-09T10:14:51.769Z,1.10
2022-08-09T10:17:39.836Z,0.90
2022-08-09T10:20:27.659Z,1.00
2022-08-09T10:23:21.185Z,0.87
2022-08-09T10:26:06.123Z,1.00
2022-08-09T10:28:43.319Z,1.00
2022-08-09T10:34:33.267Z,0.90
2022-08-09T10:36:58.099Z,1.07
2022-08-09T10:39:28.706Z,1.02
2022-08-09T10:41:57.215Z,1.17
2022-08-09T10:44:30.446Z,0.98
2022-08-09T10:48:20.499Z,1.00
2022-08-09T10:51:03.846Z,0.90
2022-08-09T10:54:05.996Z,0.80
2022-08-09T10:56:42.402Z,1.20
2022-08-09T10:59:31.278Z,0.93
2022-08-09T11:03:11.074Z,1.02
2022-08-09T11:05:30.040Z,0.90
2022-08-09T11:08:46.965Z,1.00
2022-08-09T11:11:20.230Z,0.70
2022-08-09T11:14:32.844Z,0.80
2022-08-09T11:17:02.557Z,0.90
2022-08-09T11:20:11.425Z,0.82
2022-08-09T11:22:46.110Z,0.70
2022-08-09T11:25:47.345Z,0.80
2022-08-09T11:28:54.040Z,0.70
2022-08-09T11:31:52.722Z,0.90
2022-08-09T11:34:52.526Z,0.85
2022-08-09T11:37:40.635Z,1.05
2022-08-09T11:40:13.958Z,1.38
2022-08-09T11:42:52.706Z,0.95
2022-08-09T11:45:43.094Z,0.80
2022-08-09T11:48:30.192Z,1.05
2022-08-09T11:52:48.449Z,0.95
2022-08-09T11:54:27.576Z,0.60
2022-08-09T11:58:00.631Z,0.65
2022-08-09T12:00:42.486Z,0.80
2022-08-09T12:03:54.896Z,0.80
2022-08-09T12:06:31.976Z,1.40
2022-08-09T12:09:19.294Z,0.90
2022-08-09T12:12:12.347Z,0.82
2022-08-09T12:15:08.398Z,0.90
2022-08-09T12:17:44.494Z,1.08
2022-08-09T12:20:22.185Z,1.00
2022-08-09T12:22:57.011Z,0.90
2022-08-09T12:25:36.582Z,0.90
2022-08-09T12:29:09.978Z,0.70
2022-08-09T12:32:02.024Z,0.70
2022-08-09T12:34:38.474Z,0.80
2022-08-09T12:37:23.471Z,0.80
2022-08-09T12:40:11.806Z,1.13
2022-08-09T12:42:45.231Z,0.90
2022-08-09T12:45:32.280Z,0.80
2022-08-09T12:48:20.488Z,1.40
2022-08-09T12:51:00.033Z,0.82
2022-08-09T12:53:40.746Z,0.75
2022-08-09T12:56:43.061Z,0.90
2022-08-09T12:59:23.062Z,0.88
2022-08-09T13:02:00.150Z,0.70
2022-08-09T13:04:38.296Z,1.10
2022-08-09T13:07:19.566Z,0.77
2022-08-09T13:10:04.865Z,0.70
2022-08-09T13:12:40.033Z,0.80
2022-08-09T13:15:25.124Z,0.73
2022-08-09T13:18:05.355Z,0.80
2022-08-09T13:20:37.911Z,0.75
2022-08-09T13:24:42.089Z,0.70
2022-08-09T13:26:49.780Z,0.70
2022-08-09T13:29:42.052Z,0.80
2022-08-09T13:32:25.392Z,0.80
2022-08-09T13:34:55.880Z,0.70
2022-08-09T13:37:50.986Z,0.80
2022-08-09T13:41:45.823Z,0.75
2022-08-09T13:43:05.147Z,1.00
2022-08-09T13:46:43.689Z,0.70
2022-08-09T13:48:27.279Z,0.70
2022-08-09T13:50:59.002Z,0.73
2022-08-09T13:53:43.571Z,0.90
2022-08-09T13:56:19.550Z,1.90
2022-08-09T13:58:53.298Z,0.90
2022-08-09T14:02:00.561Z,0.80
2022-08-09T14:04:11.479Z,0.70
2022-08-09T14:06:43.768Z,0.80
2022-08-09T14:09:15.720Z,0.82
2022-08-09T14:11:47.105Z,1.10
2022-08-09T14:14:26.132Z,0.80
2022-08-09T14:16:58.670Z,0.60
2022-08-09T14:22:01.399Z,0.65
2022-08-09T14:24:32.637Z,0.98
2022-08-09T14:27:03.239Z,0.90
2022-08-09T14:30:34.700Z,1.27
2022-08-09T14:33:12.224Z,0.88
2022-08-09T14:35:52.327Z,0.70
2022-08-09T14:38:21.967Z,0.70
2022-08-09T14:41:04.539Z,0.77
2022-08-09T14:43:47.396Z,0.98
2022-08-09T14:47:00.985Z,0.85
2022-08-09T14:49:05.647Z,0.63
2022-08-09T14:51:42.368Z,0.77
2022-08-09T14:54:11.132Z,0.88
2022-08-09T14:56:57.227Z,0.70
2022-08-09T14:59:30.079Z,0.73
2022-08-09T15:02:01.573Z,0.63
2022-08-09T15:04:30.881Z,0.77
2022-08-09T15:07:02.478Z,0.60
2022-08-09T15:10:07.521Z,0.80
2022-08-09T15:12:19.272Z,0.85
2022-08-09T15:14:49.955Z,0.70
2022-08-09T15:17:18.795Z,0.80
2022-08-09T15:19:54.582Z,0.68
2022-08-09T15:22:28.462Z,0.80
2022-08-09T15:24:58.368Z,0.90
2022-08-09T15:27:29.394Z,0.70
2022-08-09T15:30:59.132Z,0.80
2022-08-09T15:33:07.348Z,0.70
2022-08-09T15:35:40.769Z,0.90
2022-08-09T15:38:13.419Z,0.85
2022-08-09T15:40:44.353Z,0.70
2022-08-09T15:43:13.201Z,0.60
2022-08-09T15:46:07.491Z,0.80
2022-08-09T15:48:32.937Z,0.68
2022-08-09T15:51:02.641Z,0.98
2022-08-09T15:54:05.507Z,0.68
2022-08-09T15:56:38.035Z,1.20
2022-08-09T15:59:08.963Z,0.80
2022-08-09T16:01:42.000Z,0.90
2022-08-09T16:04:13.546Z,0.70
2022-08-09T16:06:44.599Z,1.10
2022-08-09T16:09:19.345Z,0.80
2022-08-09T16:12:01.251Z,1.33
2022-08-09T16:14:31.651Z,0.90
2022-08-09T16:17:01.451Z,0.77
2022-08-09T16:19:29.891Z,0.95
2022-08-09T16:22:05.807Z,0.90
2022-08-09T16:24:43.828Z,0.90
2022-08-09T16:27:26.812Z,0.88
2022-08-09T16:30:01.174Z,0.70
2022-08-09T16:32:56.204Z,0.77
2022-08-09T16:35:55.906Z,0.80
2022-08-09T16:38:19.277Z,0.70
2022-08-09T16:40:55.556Z,0.88
2022-08-09T16:43:26.643Z,0.90
2022-08-09T16:45:59.776Z,0.85
2022-08-09T16:48:42.731Z,0.80
2022-08-09T16:51:22.135Z,0.70
2022-08-09T16:54:18.043Z,0.73
2022-08-09T16:56:42.698Z,0.82
2022-08-09T16:59:20.259Z,0.60
2022-08-09T17:01:52.869Z,0.70
2022-08-09T17:04:21.617Z,0.73
2022-08-09T17:08:41.721Z,0.80
2022-08-09T17:09:47.658Z,0.98
2022-08-09T17:12:19.565Z,0.90
2022-08-09T17:14:49.918Z,0.70
2022-08-09T17:17:26.874Z,0.73
2022-08-09T17:20:28.461Z,0.73
2022-08-09T17:22:52.072Z,0.98
2022-08-09T17:25:21.929Z,0.80
2022-08-09T17:27:54.693Z,0.80
2022-08-09T17:30:31.037Z,0.90
2022-08-09T17:33:05.469Z,1.00
2022-08-09T17:35:54.222Z,0.80
2022-08-09T17:38:34.132Z,0.80
2022-08-09T17:41:13.245Z,0.70
2022-08-09T17:43:46.918Z,0.82
2022-08-09T17:46:19.767Z,0.90
2022-08-09T17:49:02.599Z,1.00
2022-08-09T17:51:33.197Z,0.90
2022-08-09T17:54:02.699Z,0.82
2022-08-09T17:56:36.064Z,0.95
2022-08-09T17:59:09.348Z,0.90
2022-08-09T18:02:06.824Z,1.05
2022-08-09T18:04:30.538Z,1.17
2022-08-09T18:07:07.476Z,0.85
2022-08-09T18:09:41.842Z,0.90
2022-08-09T18:12:17.541Z,1.10
2022-08-09T18:14:54.593Z,0.88
2022-08-09T18:18:01.915Z,0.93
2022-08-09T18:20:56.439Z,1.00
2022-08-09T18:23:07.914Z,1.05
2022-08-09T18:25:58.737Z,0.80
2022-08-09T18:30:41.257Z,1.08
2022-08-09T18:31:24.765Z,1.00
2022-08-09T18:33:53.953Z,0.98
2022-08-09T18:36:25.992Z,1.20
2022-08-09T18:39:02.712Z,1.08
2022-08-09T18:41:34.184Z,1.25
2022-08-09T18:44:12.524Z,1.00
2022-08-09T18:46:47.907Z,1.10
2022-08-09T18:49:21.618Z,1.00
2022-08-09T18:51:55.402Z,1.10
2022-08-09T18:54:28.681Z,1.00
2022-08-09T18:57:05.964Z,1.00
2022-08-09T18:59:37.616Z,1.00
2022-08-09T19:02:19.114Z,1.00
2022-08-09T19:05:14.533Z,1.35
2022-08-09T19:07:37.734Z,1.15
2022-08-09T19:10:13.995Z,0.93
2022-08-09T19:12:45.592Z,1.10
2022-08-09T19:15:27.936Z,1.10
2022-08-09T19:17:58.584Z,0.93
2022-08-09T19:20:34.457Z,1.20
2022-08-09T19:23:09.194Z,1.00
2022-08-09T19:26:02.327Z,1.20
2022-08-09T19:28:38.085Z,1.15
2022-08-09T19:31:07.755Z,1.00
2022-08-09T19:33:36.835Z,1.05
2022-08-09T19:36:07.201Z,1.20
2022-08-09T19:38:42.955Z,1.08
2022-08-09T19:41:33.430Z,1.10
2022-08-09T19:44:04.822Z,1.30
2022-08-09T19:50:10.378Z,1.10
2022-08-09T19:52:19.073Z,1.13
2022-08-09T19:54:48.966Z,1.20
2022-08-09T19:57:17.419Z,1.15
2022-08-09T19:59:59.410Z,1.00
2022-08-09T20:04:12.611Z,1.10
2022-08-09T20:05:46.972Z,1.00
2022-08-09T20:08:34.993Z,1.00
2022-08-09T20:11:05.029Z,1.10
2022-08-09T20:13:37.098Z,1.10
2022-08-09T20:16:36.456Z,1.10
2022-08-09T20:19:47.440Z,1.63
2022-08-09T20:21:59.803Z,1.27
2022-08-09T20:24:53.738Z,0.93
2022-08-09T20:27:22.850Z,0.98
2022-08-09T20:29:58.196Z,1.20
2022-08-09T20:32:40.045Z,1.23
2022-08-09T20:35:17.690Z,1.30
2022-08-09T20:38:20.709Z,1.10
2022-08-09T20:40:53.621Z,1.00
2022-08-09T20:43:46.699Z,1.20
2022-08-09T20:46:42.971Z,1.30
2022-08-09T20:49:16.013Z,1.20
2022-08-09T20:51:51.008Z,1.20
2022-08-09T20:54:24.782Z,1.30
2022-08-09T20:57:00.607Z,1.10
2022-08-09T21:00:19.504Z,1.23
2022-08-09T21:02:21.529Z,1.08
2022-08-09T21:05:52.593Z,1.10
2022-08-09T21:08:01.645Z,1.40
2022-08-09T21:10:32.800Z,1.00
2022-08-09T21:13:12.376Z,1.30
2022-08-09T21:15:52.052Z,1.35
2022-08-09T21:18:27.417Z,1.10
2022-08-09T21:20:57.949Z,1.42
2022-08-09T21:23:47.457Z,1.25
2022-08-09T21:26:21.114Z,1.35
2022-08-09T21:28:55.629Z,1.20
2022-08-09T21:31:48.911Z,1.20
2022-08-09T21:34:21.126Z,1.05
2022-08-09T21:37:02.225Z,1.35
2022-08-09T21:39:43.936Z,1.10
2022-08-09T21:42:28.441Z,1.20
2022-08-09T21:45:02.234Z,1.25
2022-08-09T21:47:51.045Z,1.27
2022-08-09T21:50:35.854Z,1.50
2022-08-09T21:53:15.781Z,1.25
2022-08-09T21:56:04.973Z,1.37
2022-08-09T21:58:34.413Z,1.25
2022-08-09T22:01:05.002Z,1.27
2022-08-09T22:03:58.987Z,1.38
2022-08-09T22:06:30.771Z,1.45
2022-08-09T22:09:06.893Z,1.30
2022-08-09T22:12:06.173Z,1.60
2022-08-09T22:14:38.825Z,1.25
2022-08-09T22:17:10.653Z,1.20
2022-08-09T22:19:58.648Z,1.38
2022-08-09T22:22:34.231Z,1.33
2022-08-09T22:26:08.075Z,1.40
2022-08-09T22:28:00.490Z,1.30
2022-08-09T22:30:36.646Z,1.30
2022-08-09T22:33:10.203Z,1.48
2022-08-09T22:36:00.701Z,1.30
2022-08-09T22:38:33.775Z,1.52
2022-08-09T22:41:13.110Z,1.10
2022-08-09T22:44:02.090Z,1.30
2022-08-09T22:48:10.524Z,1.05
2022-08-09T22:49:31.841Z,1.25
2022-08-09T22:52:07.908Z,1.23
2022-08-09T22:54:42.861Z,1.30
2022-08-09T22:57:19.935Z,1.42
2022-08-09T22:59:58.941Z,1.25
2022-08-09T23:02:30.008Z,1.30
2022-08-09T23:05:00.693Z,1.20
2022-08-09T23:08:27.700Z,1.30
2022-08-09T23:10:47.915Z,1.10
2022-08-09T23:13:16.482Z,1.40
2022-08-09T23:16:02.690Z,1.15
2022-08-09T23:18:41.603Z,1.05
2022-08-09T23:21:25.066Z,1.33
2022-08-09T23:24:05.317Z,1.30
2022-08-09T23:26:41.073Z,1.30
2022-08-09T23:29:15.918Z,1.27
2022-08-09T23:31:51.316Z,1.20
2022-08-09T23:34:25.139Z,1.25
2022-08-09T23:36:53.548Z,1.25
2022-08-09T23:39:44.850Z,1.17
2022-08-09T23:42:21.013Z,1.23
2022-08-09T23:45:00.551Z,1.30
2022-08-09T23:47:39.200Z,1.23
2022-08-09T23:50:20.995Z,1.08
2022-08-09T23:53:04.104Z,1.30
2022-08-09T23:56:05.529Z,1.10
2022-08-09T23:58:29.572Z,1.40
